• Join FlightAware (Why Join?)
  • Login
  • US Flag 
10:17PM EST


 

Airport Tracker/Info


-or-


 

Live Flight TrackerFlight Track Log ✈ N6045S ✈ 24-Jun-2013 ✈ KHPN - KACK

Flight Track Log - Related Links

Times and Time Zones

All times are in EDT time to prevent confusion due to time zone crossing. See the N6045S flight status page for this flight to view local times or setup timezone preferences in your user account.

Time Position Orientation Groundspeed Altitude Reporting Facility
EDT Latitude Longitude Course Direction KTS MPH feet Rate Location/Type
12:43PM 41.1172 -73.0297 93° East 208 239 12,800  Level Boston Center
12:44PM 41.1133 -72.9386 93° East 203 234 13,800 850 Climbing Boston Center
12:45PM 41.1117 -72.8617 92° East 203 234 14,500 750 Climbing Boston Center
12:46PM 41.1161 -72.7817 86° East 203 234 15,300 750 Climbing Boston Center
12:47PM 41.1142 -72.7017 92° East 203 234 16,000 1,100 Climbing Boston Center
12:48PM 41.1103 -72.6303 94° East 208 239 17,500 500 Climbing Boston Center
12:49PM 41.1103 -72.5419 90° East 219 252 17,000 -100 Descending Boston Center
12:50PM 41.1144 -72.4567 86° East 219 252 17,300 182 Climbing Boston Center
12:51PM 41.1125 -72.3464 91° East 230 265 17,400 91 Climbing Boston Center
12:52PM 41.1122 -72.2692 90° East 235 270 17,500 50 Climbing Boston Center
12:53PM 41.1081 -72.1783 93° East 235 270 17,500  Level Boston Center
12:54PM 41.1056 -72.0875 92° East 235 270 17,500  Level Boston Center
12:55PM 41.1094 -72.0019 87° East 235 270 17,500  Level Boston Center
12:56PM 41.1153 -71.9083 85° East 235 270 17,500  Level Boston Center
12:57PM 41.1128 -71.8203 92° East 235 270 17,500  Level Boston Center
12:58PM 41.1122 -71.7347 90° East 235 270 17,500  Level Boston Center
12:59PM 41.1158 -71.6467 87° East 235 270 17,500 -200 Level Boston Center
01:00PM 41.1214 -71.5583 85° East 235 270 17,100 -400 Descending Boston Center
01:01PM 41.1292 -71.4647 84° East 240 276 16,700 -300 Descending Boston Center
01:02PM 41.1367 -71.3764 84° East 245 282 16,500 -292 Descending Boston Center
01:04PM 41.1519 -71.2492 81° East 245 282 16,000 -625 Descending Boston Center
01:05PM 41.1614 -71.1608 82° East 251 289 15,000 -950 Descending Boston Center
01:06PM 41.1750 -71.0833 77° East 262 302 14,100 -1,050 Descending Boston Center
01:07PM 41.1778 -70.9619 88° East 268 308 12,900 -1,050 Descending Boston Center
01:08PM 41.1578 -70.8658 105° East 268 308 12,000 -950 Descending Boston Center
01:09PM 41.1397 -70.7753 105° East 268 308 11,000 -1,000 Descending Boston Center
01:10PM 41.1194 -70.6711 104° East 268 308 10,000 -950 Descending Boston Center
01:11PM 41.1136 -70.5722 94° East 268 308 9,100 -900 Descending Boston Center
01:12PM 41.1100 -70.4731 93° East 268 308 8,200 -900 Descending Boston Center
01:13PM 41.1039 -70.3742 95° East 268 308 7,300 -950 Descending Boston Center
01:14PM 41.0981 -70.2833 95° East 268 308 6,300 -1,000 Descending Boston Center
01:15PM 41.0900 -70.1872 96° East 263 303 5,300 -950 Descending Boston Center
01:16PM 41.1047 -70.0958 78° East 256 295 4,400 -850 Descending Boston Center
01:17PM 41.1472 -70.0308 49° Northeast 234 269 3,600 -700 Descending Boston Center
01:18PM 41.1914 -69.9631 49° Northeast 228 262 3,000 -227 Descending Boston Center
01:19PM 41.2381 -69.9033 44° Northeast 234 269 3,100 45 Climbing Boston Center
01:20PM 41.2822 -69.8325 50° Northeast 220 253 3,100 -298 Level Boston Center
01:21PM 41.3261 -69.8361 356° North 168 193 2,500 -600 Descending Boston Center
01:22PM 41.3586 -69.8847 312° West 138 159 1,900 -454 Descending Boston Center
01:23PM 41.3494 -69.9375 257° West 128 147 1,600 -150 Descending Boston Center
01:24PM 41.3169 -69.9803 225° Southwest 129 148 1,600 -350 Level Boston Center
01:25PM 41.2928 -70.0172 229° Southwest 141 162 900 -600 Descending Boston Center
01:26PM 41.2664 -70.0567 228° Southwest 141 162 400 5,050 Descending Boston Center
01:27PM 41.2403 -70.0936 227° Southwest 141 162 11,000 10,600 Climbing Boston Center